Time;durP1;ratioP1;P1;durP2;ratioP2;P2;SDS_P1;SDS_P2;PMS_P1;PMS_P2;Temp;Humidity;BMP_temperature;BMP_pressure;BME280_temperature;BME280_humidity;BME280_pressure;Samples;Min_cycle;Max_cycle;Signal;HPM_P1;HPM_P2
2021/11/23 00:01:53;;;;;;;954.05;887.50;;;;;;;19.44;48.79;101547.50;5054877;28;20024;-37
2021/11/23 00:04:19;;;;;;;911.20;849.78;;;;;;;19.26;49.13;101520.56;5070158;28;20071;-37
2021/11/23 00:06:46;;;;;;;969.13;899.53;;;;;;;19.44;48.99;101558.97;5058784;28;20358;-37
2021/11/23 00:09:12;;;;;;;967.80;898.00;;;;;;;19.43;49.23;101564.44;5063221;28;20033;-37
2021/11/23 00:11:38;;;;;;;940.70;876.20;;;;;;;19.07;49.21;101502.66;5056107;28;20078;-37
2021/11/23 00:14:04;;;;;;;976.40;907.55;;;;;;;19.34;49.36;101566.06;5046168;28;20029;-38
2021/11/23 00:16:30;;;;;;;983.72;911.85;;;;;;;19.41;49.15;101577.03;5054889;28;20033;-39
2021/11/23 00:18:57;;;;;;;937.42;872.10;;;;;;;19.44;49.02;101576.78;5058282;28;20025;-38
2021/11/23 00:21:23;;;;;;;969.97;900.38;;;;;;;19.35;49.13;101560.59;5055572;28;20031;-38
2021/11/23 00:23:49;;;;;;;964.30;895.55;;;;;;;19.41;49.64;101577.88;5063941;28;20033;-38
2021/11/23 00:26:15;;;;;;;1013.40;938.95;;;;;;;19.38;49.23;101567.47;5067432;28;20025;-38
2021/11/23 00:28:41;;;;;;;980.92;911.38;;;;;;;19.40;49.12;101570.00;5053420;28;20035;-38
2021/11/23 00:31:07;;;;;;;971.95;903.60;;;;;;;19.33;49.29;101559.88;5061138;28;20059;-38
2021/11/23 00:33:40;;;;;;;970.90;900.88;;;;;;;19.37;49.60;101566.63;5052350;28;20047;-38
2021/11/23 00:36:06;;;;;;;1006.63;932.03;;;;;;;19.12;49.21;101525.25;5059813;28;20040;-38
2021/11/23 00:38:34;;;;;;;967.40;898.53;;;;;;;19.35;49.63;101555.28;5056278;28;20029;-38
2021/11/23 00:41:00;;;;;;;998.00;924.35;;;;;;;19.33;49.22;101554.56;5056611;28;20429;-38
2021/11/23 00:43:29;;;;;;;976.28;905.70;;;;;;;19.31;49.24;101548.53;5047548;28;20020;-38
2021/11/23 00:45:55;;;;;;;966.90;899.65;;;;;;;19.34;49.23;101545.56;5080536;28;20017;-38
2021/11/23 00:48:21;;;;;;;963.25;894.00;;;;;;;19.37;49.18;101550.66;5057912;28;20021;-38
2021/11/23 00:50:50;;;;;;;933.50;868.85;;;;;;;19.35;49.76;101539.28;5061009;28;20032;-38
2021/11/23 00:53:16;;;;;;;939.30;874.88;;;;;;;19.36;49.54;101550.78;5068900;28;20033;-38
2021/11/23 00:55:42;;;;;;;939.40;873.75;;;;;;;19.32;49.67;101534.22;5058757;28;20536;-39
2021/11/23 00:58:08;;;;;;;968.05;900.92;;;;;;;19.22;49.27;101527.97;5057523;28;20025;-38
2021/11/23 01:00:35;;;;;;;975.90;905.25;;;;;;;19.14;49.41;101517.97;5050879;28;20036;-38
2021/11/23 01:03:02;;;;;;;927.83;864.08;;;;;;;19.33;49.83;101540.41;5063437;28;20493;-38
2021/11/23 01:05:28;;;;;;;957.88;890.22;;;;;;;19.33;49.65;101540.41;5053865;28;20025;-39
2021/11/23 01:07:55;;;;;;;930.53;865.40;;;;;;;19.29;49.19;101542.50;5063944;28;20025;-38
2021/11/23 01:10:21;;;;;;;997.08;923.47;;;;;;;19.16;49.37;101523.16;5055474;28;20033;-38
2021/11/23 01:12:47;;;;;;;936.35;872.45;;;;;;;18.99;48.73;101544.06;5062080;28;20477;-38
2021/11/23 01:15:14;;;;;;;935.67;871.53;;;;;;;19.05;48.54;101541.88;5054309;28;20032;-38
2021/11/23 01:17:40;;;;;;;938.55;872.67;;;;;;;19.13;48.11;101545.59;5057919;28;20033;-38
2021/11/23 01:20:07;;;;;;;931.47;868.35;;;;;;;19.17;48.37;101557.66;5050692;28;20482;-39
2021/11/23 01:22:33;;;;;;;937.78;874.38;;;;;;;18.96;48.68;101507.03;5059181;28;20105;-39
2021/11/23 01:25:00;;;;;;;931.67;867.45;;;;;;;19.19;48.91;101549.53;5066288;28;20107;-38
2021/11/23 01:27:26;;;;;;;935.30;871.58;;;;;;;19.23;48.69;101534.16;5072602;28;20108;-38
2021/11/23 01:29:52;;;;;;;969.50;901.45;;;;;;;19.24;48.62;101539.34;5059046;28;20028;-37
2021/11/23 01:32:18;;;;;;;981.78;912.13;;;;;;;19.10;48.09;101521.03;5056490;28;20103;-38
2021/11/23 01:34:44;;;;;;;927.85;864.63;;;;;;;19.26;48.17;101540.06;5054737;28;20368;-38
2021/11/23 01:37:11;;;;;;;924.22;861.35;;;;;;;19.26;48.56;101541.88;5042050;28;20028;-38
2021/11/23 01:39:37;;;;;;;927.97;864.17;;;;;;;19.13;48.73;101523.41;5042510;28;20112;-39
2021/11/23 01:42:03;;;;;;;940.58;877.47;;;;;;;19.24;48.80;101541.16;5052054;28;20032;-38
2021/11/23 01:44:29;;;;;;;924.35;863.08;;;;;;;19.23;48.54;101542.16;5073749;28;20059;-38
2021/11/23 01:46:56;;;;;;;916.75;855.20;;;;;;;19.22;48.53;101541.28;5070753;28;20031;-38
2021/11/23 01:49:22;;;;;;;931.15;868.30;;;;;;;19.19;48.70;101537.06;5072230;28;20032;-38
2021/11/23 01:51:48;;;;;;;938.08;874.50;;;;;;;19.18;48.89;101543.34;5053428;28;20336;-38
2021/11/23 01:54:14;;;;;;;926.17;863.63;;;;;;;19.09;48.88;101530.81;5056876;28;20036;-38
2021/11/23 01:56:40;;;;;;;911.40;851.58;;;;;;;19.21;48.56;101547.59;5065420;28;20123;-38
2021/11/23 01:59:07;;;;;;;908.25;847.60;;;;;;;19.22;48.75;101546.59;5055134;28;20043;-38
2021/11/23 02:01:33;;;;;;;908.67;848.38;;;;;;;19.23;48.49;101550.13;5052472;28;20033;-38
2021/11/23 02:03:59;;;;;;;923.17;860.00;;;;;;;19.22;48.79;101548.44;5043537;28;20362;-38
2021/11/23 02:06:25;;;;;;;950.13;885.80;;;;;;;19.21;48.23;101542.28;5057133;28;20021;-38
2021/11/23 02:08:52;;;;;;;920.45;858.85;;;;;;;19.19;48.61;101531.75;5053746;28;20150;-39
2021/11/23 02:11:18;;;;;;;906.35;845.20;;;;;;;19.10;48.76;101523.69;5062850;28;20035;-38
2021/11/23 02:13:44;;;;;;;905.72;845.65;;;;;;;19.16;48.80;101528.50;5026946;28;20029;-38
2021/11/23 02:16:10;;;;;;;896.70;837.58;;;;;;;19.15;48.73;101534.78;5051532;28;20128;-38
2021/11/23 02:18:37;;;;;;;935.40;872.72;;;;;;;19.15;48.61;101534.78;5056584;28;20024;-38
2021/11/23 02:21:03;;;;;;;919.72;858.47;;;;;;;19.07;48.46;101515.97;5054721;28;20040;-38
2021/11/23 02:23:29;;;;;;;900.58;841.05;;;;;;;19.04;48.66;101525.03;5054705;28;20133;-38
2021/11/23 02:25:56;;;;;;;928.17;865.60;;;;;;;19.18;47.93;101545.19;5043118;28;20447;-38
2021/11/23 02:28:22;;;;;;;904.22;844.65;;;;;;;19.16;48.28;101539.97;5051880;28;20370;-38
2021/11/23 02:30:52;;;;;;;906.30;847.05;;;;;;;19.12;48.20;101527.91;5053688;28;20024;-39
2021/11/23 02:33:20;;;;;;;911.80;851.03;;;;;;;19.15;48.45;101532.13;5048439;28;20040;-37
2021/11/23 02:35:47;;;;;;;909.53;849.33;;;;;;;19.13;48.60;101540.25;5050120;28;20048;-37
2021/11/23 02:38:13;;;;;;;924.97;862.28;;;;;;;19.05;48.39;101526.72;5056213;28;20099;-37
2021/11/23 02:40:39;;;;;;;916.08;855.72;;;;;;;19.13;48.55;101534.06;5055726;28;20029;-37
2021/11/23 02:43:06;;;;;;;931.70;869.22;;;;;;;19.10;48.69;101532.50;5050872;28;20028;-37
2021/11/23 02:45:32;;;;;;;933.17;869.40;;;;;;;19.11;48.50;101531.53;5049235;28;20071;-37
2021/11/23 02:47:59;;;;;;;910.22;849.58;;;;;;;19.09;48.37;101538.81;5040355;28;20046;-37
2021/11/23 02:50:26;;;;;;;902.10;842.22;;;;;;;19.11;48.42;101538.69;5061183;28;20409;-37
2021/11/23 02:52:52;;;;;;;935.25;872.20;;;;;;;19.12;48.25;101535.06;5053781;28;20035;-37
2021/11/23 02:55:20;;;;;;;928.55;866.08;;;;;;;19.13;48.11;101532.28;5056561;28;20118;-37
2021/11/23 02:57:46;;;;;;;924.47;862.60;;;;;;;19.10;48.25;101535.19;5035231;28;20032;-37
2021/11/23 03:00:17;;;;;;;953.25;886.85;;;;;;;19.08;48.25;101528.28;5048362;28;20363;-36
2021/11/23 03:02:44;;;;;;;930.28;867.03;;;;;;;19.07;48.18;101531.94;5056002;28;20040;-37
2021/11/23 03:05:11;;;;;;;939.25;874.60;;;;;;;19.02;48.28;101526.13;5060868;28;20038;-37
2021/11/23 03:07:37;;;;;;;928.58;864.72;;;;;;;19.01;48.54;101527.97;5067574;28;20044;-37
2021/11/23 03:10:05;;;;;;;924.58;861.33;;;;;;;19.03;48.37;101533.13;5074785;28;20040;-37
2021/11/23 03:12:31;;;;;;;916.00;855.67;;;;;;;19.07;48.43;101532.75;5039782;28;20107;-37
2021/11/23 03:14:57;;;;;;;912.67;851.20;;;;;;;18.96;48.54;101504.38;5056094;28;20033;-37
2021/11/23 03:17:24;;;;;;;887.47;829.10;;;;;;;18.96;48.29;101509.69;5052316;28;20025;-37
2021/11/23 03:19:50;;;;;;;920.25;859.05;;;;;;;19.08;48.24;101533.59;5048477;28;20036;-37
2021/11/23 03:22:16;;;;;;;917.60;856.78;;;;;;;19.00;47.73;101523.59;5055048;28;20033;-37
2021/11/23 03:24:42;;;;;;;951.03;884.40;;;;;;;19.08;48.11;101533.59;5051019;28;20057;-38
2021/11/23 03:27:09;;;;;;;916.80;854.58;;;;;;;19.04;48.03;101538.34;5053678;28;20025;-37
2021/11/23 03:29:35;;;;;;;941.97;877.03;;;;;;;19.01;48.45;101541.28;5050546;28;20480;-37
2021/11/23 03:32:02;;;;;;;919.08;857.15;;;;;;;18.99;48.45;101536.06;5072732;28;20029;-38
2021/11/23 03:34:36;;;;;;;911.95;850.50;;;;;;;18.94;48.22;101530.28;5066157;28;20025;-37
2021/11/23 03:37:03;;;;;;;930.78;868.95;;;;;;;18.98;48.42;101537.03;5057197;28;20044;-38
2021/11/23 03:39:29;;;;;;;923.50;861.58;;;;;;;18.97;47.90;101532.69;5056592;28;20667;-37
2021/11/23 03:41:55;;;;;;;925.75;863.70;;;;;;;18.97;48.16;101535.34;5060660;28;20032;-38
2021/11/23 03:44:21;;;;;;;957.58;891.05;;;;;;;18.99;47.68;101536.06;5063259;28;20035;-37
2021/11/23 03:46:47;;;;;;;936.70;873.45;;;;;;;18.98;47.69;101534.38;5067768;28;20438;-37
2021/11/23 03:49:14;;;;;;;932.60;868.28;;;;;;;18.97;47.72;101540.69;5072731;28;20127;-37
2021/11/23 03:51:40;;;;;;;932.88;870.30;;;;;;;18.95;48.08;101542.59;5055511;28;20166;-38
2021/11/23 03:54:06;;;;;;;946.50;880.72;;;;;;;18.93;48.37;101546.38;5052922;28;20052;-38
2021/11/23 03:56:32;;;;;;;922.50;860.88;;;;;;;18.89;48.28;101548.44;5044465;28;20430;-37
2021/11/23 03:58:58;;;;;;;892.72;833.47;;;;;;;18.82;48.33;101536.63;5060234;28;20025;-38
2021/11/23 04:01:25;;;;;;;897.72;837.53;;;;;;;18.78;48.33;101540.47;5061946;28;20021;-37
2021/11/23 04:03:51;;;;;;;948.20;883.17;;;;;;;18.88;47.95;101551.22;5079298;28;20522;-38
2021/11/23 04:06:17;;;;;;;926.65;864.58;;;;;;;18.86;47.79;101554.00;5056110;28;20363;-37
2021/11/23 04:08:43;;;;;;;933.45;870.17;;;;;;;18.88;47.83;101560.03;5060912;28;20041;-37
2021/11/23 04:11:09;;;;;;;916.10;854.53;;;;;;;18.78;47.53;101546.63;5052141;28;20433;-37
2021/11/23 04:13:36;;;;;;;958.78;892.40;;;;;;;18.66;47.67;101520.19;5052552;28;20044;-37
2021/11/23 04:16:02;;;;;;;925.47;861.55;;;;;;;18.89;47.89;101567.06;5053413;28;20032;-38
2021/11/23 04:18:28;;;;;;;935.72;871.90;;;;;;;18.84;48.23;101574.59;5058533;28;20035;-37
2021/11/23 04:20:54;;;;;;;933.25;869.10;;;;;;;18.81;48.24;101572.13;5051898;28;20029;-38
2021/11/23 04:23:20;;;;;;;939.85;875.05;;;;;;;18.74;48.20;101563.81;5051074;28;20043;-37
2021/11/23 04:25:47;;;;;;;961.83;895.38;;;;;;;18.81;48.04;101574.78;5055051;28;20087;-38
2021/11/23 04:28:13;;;;;;;901.15;840.95;;;;;;;18.78;48.12;101577.72;5049790;28;20017;-37
2021/11/23 04:30:39;;;;;;;938.97;873.85;;;;;;;18.66;47.88;101560.09;5067292;28;20032;-37
2021/11/23 04:33:05;;;;;;;895.85;836.20;;;;;;;18.79;47.75;101590.03;5050046;28;20052;-38
2021/11/23 04:35:32;;;;;;;895.53;835.92;;;;;;;18.81;47.51;101569.47;5060607;28;20020;-38
2021/11/23 04:37:58;;;;;;;929.00;866.97;;;;;;;18.81;47.59;101564.16;5056028;28;20028;-37
2021/11/23 04:40:24;;;;;;;945.75;880.45;;;;;;;18.80;47.71;101571.28;5072997;28;20462;-37
2021/11/23 04:42:51;;;;;;;909.15;846.78;;;;;;;18.65;48.04;101550.41;5053120;28;20045;-37
2021/11/23 04:45:17;;;;;;;927.70;863.72;;;;;;;18.73;47.92;101566.59;5053407;28;20032;-37
2021/11/23 04:47:43;;;;;;;909.88;848.47;;;;;;;18.72;47.89;101573.72;5072342;28;20512;-37
2021/11/23 04:50:10;;;;;;;937.47;874.15;;;;;;;18.71;47.65;101572.03;5066716;28;20040;-37
2021/11/23 04:52:36;;;;;;;937.90;872.95;;;;;;;18.67;47.92;101572.41;5046688;28;20336;-38
2021/11/23 04:55:03;;;;;;;899.05;840.22;;;;;;;18.67;47.95;101567.94;5055526;28;21082;-37
2021/11/23 04:57:29;;;;;;;967.78;899.58;;;;;;;18.68;47.68;101571.44;5062501;28;20454;-38
2021/11/23 04:59:56;;;;;;;909.58;849.88;;;;;;;18.46;47.58;101529.75;5048077;28;20037;-37
2021/11/23 05:02:22;;;;;;;895.65;835.83;;;;;;;18.49;47.62;101540.16;5077391;28;20036;-37
2021/11/23 05:04:48;;;;;;;891.15;832.75;;;;;;;18.72;47.75;101573.72;5056051;28;20035;-39
2021/11/23 05:07:14;;;;;;;950.33;885.10;;;;;;;18.58;47.52;101556.25;5059604;28;20101;-37
2021/11/23 05:09:40;;;;;;;899.05;839.90;;;;;;;18.67;47.95;101591.03;5066425;28;20082;-37
2021/11/23 05:12:07;;;;;;;887.08;828.60;;;;;;;18.64;48.06;101581.50;5074204;28;20463;-37
2021/11/23 05:14:33;;;;;;;924.35;861.55;;;;;;;18.62;47.37;101588.75;5057001;28;20079;-37
2021/11/23 05:16:59;;;;;;;921.30;858.95;;;;;;;18.60;47.58;101572.91;5054605;28;20025;-37
2021/11/23 05:19:25;;;;;;;934.28;871.65;;;;;;;18.53;47.58;101574.38;5056429;28;20043;-37
2021/11/23 05:21:51;;;;;;;912.30;849.75;;;;;;;18.27;47.51;101527.75;5069865;28;20078;-38
2021/11/23 05:24:18;;;;;;;899.85;840.60;;;;;;;18.57;47.46;101570.50;5058327;28;20450;-38
2021/11/23 05:26:44;;;;;;;884.10;826.03;;;;;;;18.59;47.58;101573.88;5053796;28;20017;-37
2021/11/23 05:29:10;;;;;;;886.85;829.08;;;;;;;18.59;47.46;101571.22;5059490;28;20036;-39
2021/11/23 05:31:37;;;;;;;878.17;820.42;;;;;;;18.60;47.43;101572.91;5056082;28;20036;-38
2021/11/23 05:34:03;;;;;;;887.28;829.15;;;;;;;18.42;47.15;101538.00;5057018;28;20031;-38
2021/11/23 05:36:29;;;;;;;908.55;847.60;;;;;;;18.55;47.53;101571.59;5055929;28;20438;-38
2021/11/23 05:38:55;;;;;;;922.03;859.50;;;;;;;18.56;47.36;101576.78;5057328;28;20028;-38
2021/11/23 05:41:21;;;;;;;915.35;854.03;;;;;;;18.52;47.50;101582.47;5053788;28;20463;-38
2021/11/23 05:43:48;;;;;;;919.05;855.72;;;;;;;18.44;47.72;101577.78;5064204;28;20037;-38
2021/11/23 05:46:14;;;;;;;901.15;841.08;;;;;;;18.49;47.41;101596.84;5055594;28;20021;-38
2021/11/23 05:48:41;;;;;;;914.47;854.05;;;;;;;18.48;47.58;101599.66;5054127;28;20102;-37
2021/11/23 05:51:07;;;;;;;921.08;859.35;;;;;;;18.48;47.50;101602.31;5056589;28;20122;-38
2021/11/23 05:53:39;;;;;;;894.50;835.95;;;;;;;18.47;47.57;101600.63;5054651;28;20020;-38
2021/11/23 05:56:05;;;;;;;861.30;805.67;;;;;;;18.48;47.36;101592.50;5043511;28;20028;-38
2021/11/23 05:58:31;;;;;;;876.17;819.15;;;;;;;18.48;47.28;101603.16;5055510;28;20035;-37
2021/11/23 06:00:57;;;;;;;876.28;818.53;;;;;;;18.50;47.41;101608.34;5055665;28;20028;-38
2021/11/23 06:03:24;;;;;;;911.38;851.03;;;;;;;18.48;47.26;101607.63;5055493;28;20025;-38
2021/11/23 06:05:50;;;;;;;915.47;855.35;;;;;;;18.46;47.26;101599.78;5057416;28;20043;-38
2021/11/23 06:08:16;;;;;;;917.65;855.85;;;;;;;18.42;47.39;101592.97;5072520;28;20032;-37
2021/11/23 06:10:42;;;;;;;912.78;851.80;;;;;;;18.42;47.27;101611.59;5057849;28;20028;-38
2021/11/23 06:13:11;;;;;;;901.58;842.58;;;;;;;18.22;47.34;101574.13;5058904;28;20025;-37
2021/11/23 06:15:38;;;;;;;902.55;843.22;;;;;;;18.40;47.21;101605.56;5070571;28;20032;-37
2021/11/23 06:18:06;;;;;;;908.75;849.15;;;;;;;18.36;47.10;101588.16;5061481;28;20029;-37
2021/11/23 06:20:32;;;;;;;924.15;862.05;;;;;;;18.25;47.38;101575.72;5047645;28;20352;-38
2021/11/23 06:23:00;;;;;;;871.20;815.50;;;;;;;18.37;47.24;101601.34;5057695;28;20052;-38
2021/11/23 06:25:26;;;;;;;863.95;808.00;;;;;;;18.39;47.14;101590.59;5051439;28;20104;-38
2021/11/23 06:27:52;;;;;;;884.10;826.75;;;;;;;18.21;46.98;101569.81;5055901;28;20028;-38
2021/11/23 06:30:19;;;;;;;864.13;808.70;;;;;;;18.42;47.07;101595.66;5031481;28;20016;-38
2021/11/23 06:32:45;;;;;;;913.60;851.38;;;;;;;18.29;47.40;101581.66;5052482;28;20031;-38
2021/11/23 06:35:11;;;;;;;891.47;833.53;;;;;;;18.33;47.24;101599.88;5037927;28;20091;-38
2021/11/23 06:37:37;;;;;;;909.17;849.13;;;;;;;18.24;47.25;101585.53;5051781;28;20025;-38
2021/11/23 06:40:05;;;;;;;911.40;851.00;;;;;;;18.30;47.29;101605.47;5052338;28;20025;-38
2021/11/23 06:42:32;;;;;;;904.45;844.33;;;;;;;18.11;47.22;101582.13;5052733;28;20119;-38
2021/11/23 06:44:58;;;;;;;918.47;857.67;;;;;;;18.26;47.28;101611.97;5045795;28;20071;-38
2021/11/23 06:47:24;;;;;;;891.85;832.95;;;;;;;18.24;47.10;101609.44;5050984;28;20451;-38
2021/11/23 06:49:51;;;;;;;897.78;839.88;;;;;;;18.20;47.01;101609.78;5050426;28;20041;-38
2021/11/23 06:52:18;;;;;;;867.80;813.03;;;;;;;18.12;47.03;101577.63;5051956;28;20087;-38
2021/11/23 06:54:45;;;;;;;878.20;820.78;;;;;;;18.17;47.10;101583.44;5061862;28;20063;-38
2021/11/23 06:57:12;;;;;;;867.00;811.65;;;;;;;18.31;46.80;101612.44;5044980;28;20025;-38
2021/11/23 06:59:39;;;;;;;878.90;821.92;;;;;;;18.23;47.16;101610.41;5050469;28;20025;-38
2021/11/23 07:02:05;;;;;;;881.72;824.60;;;;;;;18.23;47.25;101629.00;5040682;28;20340;-38
2021/11/23 07:04:32;;;;;;;872.30;814.90;;;;;;;18.20;47.22;101631.06;5050706;28;20067;-38
2021/11/23 07:06:58;;;;;;;893.35;835.33;;;;;;;18.18;47.06;101630.34;5050824;28;20025;-38
2021/11/23 07:09:25;;;;;;;901.75;842.40;;;;;;;18.17;47.22;101626.81;5053529;28;20482;-38
2021/11/23 07:11:52;;;;;;;902.72;843.47;;;;;;;18.15;47.25;101627.91;5063504;28;20029;-37
2021/11/23 07:14:19;;;;;;;863.55;807.85;;;;;;;18.00;47.30;101601.56;5052995;28;20025;-37
2021/11/23 07:16:45;;;;;;;850.60;795.50;;;;;;;18.13;47.20;101606.75;5053224;28;20029;-38
2021/11/23 07:19:12;;;;;;;871.28;815.22;;;;;;;18.18;47.24;101619.72;5060087;28;20056;-38
2021/11/23 07:21:38;;;;;;;857.03;801.38;;;;;;;18.19;46.86;101610.75;5048184;28;20037;-38
2021/11/23 07:24:04;;;;;;;878.67;822.00;;;;;;;18.09;46.75;101585.88;5051382;28;20025;-38
2021/11/23 07:26:31;;;;;;;873.47;817.10;;;;;;;18.07;46.95;101587.78;5053631;28;20091;-38
2021/11/23 07:28:58;;;;;;;901.60;842.33;;;;;;;18.15;46.96;101611.97;5069285;28;20115;-38
2021/11/23 07:31:25;;;;;;;847.03;793.70;;;;;;;18.05;47.03;101596.75;5053300;28;20029;-38
2021/11/23 07:33:52;;;;;;;877.42;819.08;;;;;;;18.11;46.97;101606.03;5069661;28;20350;-38
2021/11/23 07:36:19;;;;;;;880.00;824.03;;;;;;;18.08;47.13;101597.47;5044677;28;20359;-38
2021/11/23 07:38:49;;;;;;;888.28;830.75;;;;;;;18.03;47.09;101597.81;5053220;28;20036;-38
2021/11/23 07:41:16;;;;;;;913.50;852.83;;;;;;;18.03;47.09;101596.00;5053108;28;20132;-38
2021/11/23 07:43:42;;;;;;;879.22;822.47;;;;;;;17.98;47.08;101600.00;5052224;28;20086;-38
2021/11/23 07:46:08;;;;;;;894.97;837.72;;;;;;;18.07;46.94;101606.38;5067928;28;20447;-38
2021/11/23 07:48:35;;;;;;;861.47;805.78;;;;;;;17.92;46.88;101579.19;5052335;28;20533;-38
2021/11/23 07:51:02;;;;;;;839.17;786.22;;;;;;;18.09;46.95;101604.47;5068151;28;20359;-38
2021/11/23 07:53:28;;;;;;;872.35;816.05;;;;;;;17.94;46.98;101586.06;5028415;28;20036;-38
2021/11/23 07:55:54;;;;;;;899.22;841.45;;;;;;;18.02;47.02;101596.97;5055888;28;20032;-38
2021/11/23 07:58:20;;;;;;;879.75;822.95;;;;;;;17.93;47.12;101584.41;5069405;28;20036;-38
2021/11/23 08:00:46;;;;;;;875.22;818.50;;;;;;;17.92;46.87;101587.16;5051595;28;20371;-38
2021/11/23 08:03:12;;;;;;;892.33;834.42;;;;;;;17.89;46.92;101588.28;5052098;28;20170;-38
2021/11/23 08:05:39;;;;;;;880.75;824.63;;;;;;;17.92;47.01;101590.66;5033984;28;20022;-38
2021/11/23 08:08:07;;;;;;;878.47;821.92;;;;;;;17.91;46.91;101593.44;5050677;28;20111;-38
2021/11/23 08:10:33;;;;;;;877.10;820.00;;;;;;;17.94;46.80;101593.22;5047508;28;20040;-38
2021/11/23 08:12:59;;;;;;;884.80;828.42;;;;;;;17.90;46.97;101578.47;5051304;28;20078;-37
2021/11/23 08:15:26;;;;;;;863.38;808.80;;;;;;;17.96;46.87;101594.81;5044676;28;20029;-38
2021/11/23 08:17:52;;;;;;;865.35;810.10;;;;;;;17.90;46.68;101584.63;5046792;28;20033;-38
2021/11/23 08:20:18;;;;;;;892.22;835.05;;;;;;;18.00;46.70;101592.75;5050354;28;20448;-38
2021/11/23 08:22:45;;;;;;;875.65;818.53;;;;;;;17.88;46.85;101573.28;5051393;28;20041;-38
2021/11/23 08:25:12;;;;;;;885.78;828.80;;;;;;;17.91;47.07;101582.81;5053303;28;20462;-38
2021/11/23 08:27:39;;;;;;;907.80;847.83;;;;;;;17.82;46.91;101574.56;5054487;28;20116;-38
2021/11/23 08:30:06;;;;;;;883.35;826.17;;;;;;;17.83;46.93;101573.59;5053049;28;20024;-38
2021/11/23 08:32:33;;;;;;;910.30;850.50;;;;;;;17.87;46.97;101576.88;5068764;28;20040;-38
2021/11/23 08:34:59;;;;;;;876.58;820.63;;;;;;;17.84;47.00;101577.13;5059095;28;20439;-38
2021/11/23 08:37:26;;;;;;;887.40;829.55;;;;;;;17.81;46.99;101572.88;5048460;28;20116;-38
2021/11/23 08:39:55;;;;;;;864.05;809.28;;;;;;;17.81;47.18;101572.03;5053743;28;20028;-38
2021/11/23 08:42:21;;;;;;;860.45;805.58;;;;;;;17.85;46.96;101569.06;5053354;28;20082;-38
2021/11/23 08:44:48;;;;;;;869.95;813.72;;;;;;;17.85;46.82;101569.06;5054857;28;20470;-38
2021/11/23 08:47:15;;;;;;;889.67;831.70;;;;;;;17.72;46.70;101546.19;5056249;28;20025;-38
2021/11/23 08:49:41;;;;;;;883.33;826.63;;;;;;;17.80;46.83;101560.56;5046948;28;20451;-38
2021/11/23 08:52:08;;;;;;;892.75;835.40;;;;;;;17.71;47.10;101550.63;5063902;28;20024;-38
2021/11/23 08:54:34;;;;;;;885.20;827.92;;;;;;;17.71;47.02;101550.63;5056211;28;20025;-38
2021/11/23 08:57:03;;;;;;;875.45;819.88;;;;;;;17.74;47.08;101562.84;5053075;28;20112;-38
2021/11/23 08:59:32;;;;;;;881.20;824.33;;;;;;;17.74;46.96;101562.84;5053411;28;20025;-38
2021/11/23 09:01:59;;;;;;;869.80;813.70;;;;;;;17.73;46.94;101569.09;5054196;28;20067;-38
2021/11/23 09:04:25;;;;;;;883.78;826.88;;;;;;;17.71;46.92;101565.72;5056269;28;20478;-38
2021/11/23 09:06:51;;;;;;;871.42;815.42;;;;;;;17.70;46.80;101561.38;5039630;28;20045;-38
2021/11/23 09:09:22;;;;;;;874.50;818.88;;;;;;;17.54;46.99;101543.13;5046895;28;20226;-38
2021/11/23 09:11:49;;;;;;;885.35;828.67;;;;;;;17.67;46.80;101554.47;5054520;28;20025;-38
2021/11/23 09:14:15;;;;;;;874.58;819.47;;;;;;;17.68;46.74;101565.00;5071458;28;20044;-38
2021/11/23 09:16:41;;;;;;;879.30;823.47;;;;;;;17.69;46.84;101568.50;5070339;28;20029;-37
2021/11/23 09:19:08;;;;;;;860.28;805.80;;;;;;;17.67;46.62;101554.47;5070315;28;20025;-38
2021/11/23 09:21:34;;;;;;;859.70;805.90;;;;;;;17.74;46.72;101557.53;5053862;28;20021;-38
2021/11/23 09:24:00;;;;;;;856.00;802.35;;;;;;;17.74;46.80;101566.31;5055709;28;20382;-38
2021/11/23 09:26:26;;;;;;;883.20;827.55;;;;;;;17.75;46.64;101560.06;5051639;28;20048;-38
2021/11/23 09:28:53;;;;;;;878.65;822.97;;;;;;;17.76;46.50;101559.09;5045043;28;20031;-38
2021/11/23 09:31:19;;;;;;;864.20;809.60;;;;;;;17.58;46.33;101536.59;5049244;28;20478;-38
2021/11/23 09:33:46;;;;;;;869.38;814.53;;;;;;;17.76;46.63;101567.06;5070061;28;20466;-38
2021/11/23 09:36:12;;;;;;;857.63;804.08;;;;;;;17.60;46.66;101534.66;5069626;28;20028;-38
2021/11/23 09:38:38;;;;;;;843.90;790.60;;;;;;;17.75;46.63;101560.06;5067612;28;20354;-38
2021/11/23 09:41:05;;;;;;;871.80;817.05;;;;;;;17.71;46.74;101553.28;5051540;28;20029;-38
2021/11/23 09:43:31;;;;;;;865.80;811.42;;;;;;;17.68;46.73;101550.88;5049139;28;20029;-38
2021/11/23 09:45:58;;;;;;;870.97;815.50;;;;;;;17.66;46.83;101548.34;5049552;28;20320;-38
2021/11/23 09:48:24;;;;;;;884.88;827.45;;;;;;;17.65;46.94;101530.69;5050976;28;20041;-38
2021/11/23 09:50:51;;;;;;;879.38;823.40;;;;;;;17.60;46.90;101532.84;5052450;28;20032;-38
2021/11/23 09:53:18;;;;;;;863.63;808.67;;;;;;;17.57;46.97;101534.91;5035101;28;20033;-37
2021/11/23 09:55:44;;;;;;;856.45;802.42;;;;;;;17.61;46.88;101536.38;5037322;28;20120;-38
2021/11/23 09:58:11;;;;;;;859.40;805.33;;;;;;;17.65;46.77;101530.69;5042669;28;20033;-38
2021/11/23 10:00:42;;;;;;;858.20;803.70;;;;;;;17.67;46.70;101533.22;5053415;28;20758;-38
2021/11/23 10:03:11;;;;;;;841.42;789.05;;;;;;;17.68;46.56;101542.91;5054388;28;20107;-38
2021/11/23 10:05:39;;;;;;;859.85;805.75;;;;;;;17.66;46.67;101542.19;5066001;28;20040;-38
2021/11/23 10:08:07;;;;;;;869.97;814.70;;;;;;;17.60;46.80;101535.50;5048877;28;20037;-38
2021/11/23 10:10:42;;;;;;;859.67;805.30;;;;;;;17.56;46.92;101539.38;5049631;28;20040;-38
2021/11/23 10:13:09;;;;;;;876.92;821.47;;;;;;;17.60;46.70;101534.66;5039600;28;20560;-37
2021/11/23 10:15:36;;;;;;;835.03;782.70;;;;;;;17.24;46.89;101494.88;5045740;28;20050;-37
2021/11/23 10:18:13;;;;;;;869.53;814.17;;;;;;;17.49;47.05;101549.59;5051996;28;20082;-37
2021/11/23 10:20:47;;;;;;;847.67;794.38;;;;;;;17.34;46.91;101526.03;5053715;28;20033;-38
2021/11/23 10:23:32;;;;;;;855.78;802.00;;;;;;;17.40;46.95;101526.41;5054434;28;20036;-38
2021/11/23 10:26:18;;;;;;;851.85;797.80;;;;;;;17.54;46.93;101543.13;5050898;28;20376;-38
2021/11/23 10:28:52;;;;;;;843.13;789.88;;;;;;;17.37;46.62;101516.03;5052678;28;20024;-38
2021/11/23 10:31:19;;;;;;;833.40;780.72;;;;;;;17.56;46.70;101538.53;5033705;28;20094;-39
2021/11/23 10:33:45;;;;;;;839.25;786.80;;;;;;;17.54;46.71;101541.31;5054159;28;20025;-38
2021/11/23 10:36:15;;;;;;;867.00;811.65;;;;;;;17.29;46.86;101499.84;5057207;28;20033;-38
2021/11/23 10:38:43;;;;;;;862.45;808.28;;;;;;;17.51;46.80;101551.31;5060966;28;20458;-38
2021/11/23 10:41:11;;;;;;;865.47;810.40;;;;;;;17.47;46.93;101563.97;5053425;28;20332;-38
2021/11/23 10:43:39;;;;;;;862.78;808.08;;;;;;;17.33;47.17;101538.47;5054755;28;20447;-38
2021/11/23 10:46:27;;;;;;;866.25;811.38;;;;;;;17.45;46.97;101545.50;5052289;28;20111;-38
2021/11/23 10:49:01;;;;;;;865.75;811.38;;;;;;;17.42;46.94;101558.16;5052654;28;20035;-38
2021/11/23 10:51:37;;;;;;;871.85;816.95;;;;;;;17.37;46.94;101552.34;5051624;28;20091;-38
2021/11/23 10:54:14;;;;;;;865.05;810.50;;;;;;;17.39;47.03;101555.72;5053234;28;20085;-38